Time;durP1;ratioP1;P1;durP2;ratioP2;P2;SDS_P1;SDS_P2;PMS_P1;PMS_P2;Temp;Humidity;BMP_temperature;BMP_pressure;BME280_temperature;BME280_humidity;BME280_pressure;Samples;Min_cycle;Max_cycle;Signal;HPM_P1;HPM_P2
2023/12/26 00:01:53;;;;;;;14.30;7.53;;;;;;;7.28;100.00;100139.22;5608140;31;34937;-71
2023/12/26 00:04:56;;;;;;;16.40;8.18;;;;;;;7.25;100.00;100146.63;5608821;31;34033;-72
2023/12/26 00:08:02;;;;;;;13.93;6.70;;;;;;;7.18;100.00;100146.41;5608723;31;34067;-72
2023/12/26 00:11:06;;;;;;;15.35;7.43;;;;;;;7.30;100.00;100131.19;5608098;31;34106;-72
2023/12/26 00:14:09;;;;;;;14.50;8.23;;;;;;;7.33;100.00;100139.59;5608287;31;34310;-71
2023/12/26 00:17:16;;;;;;;15.88;7.55;;;;;;;7.25;100.00;100134.28;5608709;31;34188;-71
2023/12/26 00:20:19;;;;;;;16.90;8.02;;;;;;;7.18;100.00;100135.00;5609066;31;33736;-71
2023/12/26 00:23:23;;;;;;;17.73;7.87;;;;;;;7.12;100.00;100136.44;5609017;31;34366;-71
2023/12/26 00:26:26;;;;;;;17.95;8.32;;;;;;;7.09;100.00;100131.50;5607792;31;34827;-71
2023/12/26 00:29:31;;;;;;;15.35;7.50;;;;;;;7.03;100.00;100124.16;5608150;31;34165;-71
2023/12/26 00:32:34;;;;;;;17.50;7.80;;;;;;;7.07;100.00;100125.53;5608756;31;34105;-72
2023/12/26 00:35:37;;;;;;;16.00;8.00;;;;;;;7.07;100.00;100133.44;5608881;31;34191;-72
2023/12/26 00:38:40;;;;;;;16.42;8.30;;;;;;;7.06;100.00;100128.34;5608852;31;34227;-72
2023/12/26 00:41:43;;;;;;;17.80;8.25;;;;;;;7.19;100.00;100139.31;5607727;31;35049;-73
2023/12/26 00:44:47;;;;;;;17.87;8.70;;;;;;;7.27;100.00;100148.13;5608448;31;34101;-72
2023/12/26 00:47:50;;;;;;;16.50;6.85;;;;;;;7.31;100.00;100143.41;5607505;31;34270;-72
2023/12/26 00:50:53;;;;;;;16.50;7.60;;;;;;;7.42;100.00;100138.69;5607775;31;34046;-71
2023/12/26 00:53:57;;;;;;;16.58;7.18;;;;;;;7.57;100.00;100141.59;5608377;31;34156;-71
2023/12/26 00:57:00;;;;;;;14.95;6.40;;;;;;;7.61;100.00;100145.59;5608643;31;34127;-71
2023/12/26 01:00:06;;;;;;;15.93;6.60;;;;;;;7.90;100.00;100141.81;5608335;31;35116;-72
2023/12/26 01:03:10;;;;;;;17.42;6.75;;;;;;;7.94;100.00;100132.59;5608179;31;34084;-71
2023/12/26 01:06:16;;;;;;;16.17;6.97;;;;;;;8.01;100.00;100133.62;5608178;31;34714;-73
2023/12/26 01:09:19;;;;;;;19.52;7.07;;;;;;;7.98;100.00;100132.13;5608180;31;34183;-71
2023/12/26 01:12:22;;;;;;;15.90;6.97;;;;;;;7.97;100.00;100127.00;5608202;31;33938;-73
2023/12/26 01:15:29;;;;;;;15.48;6.45;;;;;;;7.99;100.00;100130.31;5607931;31;34730;-72
2023/12/26 01:18:33;;;;;;;13.02;6.05;;;;;;;8.00;100.00;100127.50;5594031;31;34361;-72
2023/12/26 01:21:36;;;;;;;17.20;6.75;;;;;;;8.02;100.00;100125.53;5613106;31;34232;-72
2023/12/26 01:24:39;;;;;;;17.85;6.30;;;;;;;7.86;100.00;100115.72;5614744;31;34000;-72
2023/12/26 01:27:43;;;;;;;14.40;6.53;;;;;;;7.70;100.00;100091.84;5614676;31;34301;-71
2023/12/26 01:30:46;;;;;;;18.27;7.45;;;;;;;7.68;100.00;100095.63;5614412;31;34238;-71
2023/12/26 01:33:51;;;;;;;16.35;6.40;;;;;;;7.58;100.00;100110.75;5614259;31;34961;-71
2023/12/26 01:36:57;;;;;;;17.37;6.93;;;;;;;7.43;100.00;100113.97;5614538;31;34155;-72
2023/12/26 01:40:01;;;;;;;17.00;7.03;;;;;;;7.32;100.00;100116.84;5614092;31;34063;-72
2023/12/26 01:43:04;;;;;;;19.05;6.85;;;;;;;7.27;100.00;100126.19;5614024;31;35551;-71
2023/12/26 01:46:09;;;;;;;16.52;6.78;;;;;;;7.22;100.00;100131.09;5614031;31;34028;-71
2023/12/26 01:49:13;;;;;;;15.48;6.85;;;;;;;7.20;100.00;100130.44;5613668;31;34336;-72
2023/12/26 01:52:20;;;;;;;18.00;7.18;;;;;;;7.16;100.00;100127.28;5613975;31;34209;-72
2023/12/26 01:55:23;;;;;;;18.37;7.80;;;;;;;7.23;100.00;100132.75;5613441;31;35558;-71
2023/12/26 01:58:27;;;;;;;16.77;8.20;;;;;;;7.31;100.00;100127.56;5613798;31;34086;-72
2023/12/26 02:01:30;;;;;;;16.55;8.23;;;;;;;7.28;100.00;100120.75;5612918;31;34805;-72
2023/12/26 02:04:34;;;;;;;19.42;8.48;;;;;;;7.33;100.00;100128.22;5613686;31;33762;-72
2023/12/26 02:07:37;;;;;;;17.27;9.30;;;;;;;7.26;100.00;100128.00;5612865;31;34050;-72
2023/12/26 02:10:45;;;;;;;20.20;9.43;;;;;;;7.28;100.00;100126.03;5613722;31;33954;-71
2023/12/26 02:13:49;;;;;;;25.40;9.02;;;;;;;7.20;100.00;100120.72;5612654;31;34051;-71
2023/12/26 02:16:54;;;;;;;20.12;9.57;;;;;;;7.11;100.00;100113.72;5612678;31;34734;-71
2023/12/26 02:19:58;;;;;;;17.77;8.73;;;;;;;7.04;100.00;100122.37;5613099;31;35021;-72
2023/12/26 02:23:02;;;;;;;20.35;8.90;;;;;;;6.91;100.00;100123.59;5613296;31;33997;-72
2023/12/26 02:26:07;;;;;;;19.55;8.95;;;;;;;6.83;100.00;100138.47;5613343;31;34793;-72
2023/12/26 02:29:13;;;;;;;19.12;9.05;;;;;;;6.97;100.00;100128.22;5613421;31;34081;-72
2023/12/26 02:32:20;;;;;;;20.37;9.10;;;;;;;6.89;100.00;100122.91;5610737;31;34041;-72
2023/12/26 02:35:27;;;;;;;17.17;8.43;;;;;;;6.83;100.00;100112.09;5609692;31;33629;-72
2023/12/26 02:38:30;;;;;;;15.45;7.53;;;;;;;6.74;100.00;100115.66;5609258;31;34239;-72
2023/12/26 02:41:33;;;;;;;16.70;7.95;;;;;;;6.74;100.00;100105.94;5609553;31;34043;-71
2023/12/26 02:44:38;;;;;;;16.70;8.65;;;;;;;6.74;100.00;100108.56;5609610;31;34751;-72
2023/12/26 02:47:41;;;;;;;22.02;9.05;;;;;;;6.64;100.00;100107.81;5609323;31;34100;-72
2023/12/26 02:50:47;;;;;;;19.25;8.93;;;;;;;6.60;100.00;100103.81;5609267;31;34693;-72
2023/12/26 02:53:51;;;;;;;20.77;9.73;;;;;;;6.59;100.00;100101.31;5608778;31;34128;-72
2023/12/26 02:56:55;;;;;;;20.00;9.98;;;;;;;6.54;100.00;100107.03;5609328;31;34148;-72
2023/12/26 02:59:59;;;;;;;19.52;9.30;;;;;;;6.44;100.00;100109.72;5609464;31;34094;-72
2023/12/26 03:03:05;;;;;;;22.23;10.48;;;;;;;6.33;100.00;100109.13;5609568;31;33957;-72
2023/12/26 03:06:09;;;;;;;21.45;10.55;;;;;;;6.46;100.00;100120.97;5608622;31;34700;-72
2023/12/26 03:09:12;;;;;;;24.67;10.82;;;;;;;6.41;100.00;100114.47;5609156;31;34176;-71
2023/12/26 03:12:15;;;;;;;18.70;10.63;;;;;;;6.40;100.00;100115.44;5609288;31;34091;-71
2023/12/26 03:15:19;;;;;;;22.42;10.73;;;;;;;6.38;100.00;100109.50;5609219;31;34141;-72
2023/12/26 03:18:22;;;;;;;24.65;11.02;;;;;;;6.36;100.00;100122.81;5609037;31;34144;-72
2023/12/26 03:21:25;;;;;;;23.98;11.40;;;;;;;6.54;100.00;100117.56;5609525;31;34231;-72
2023/12/26 03:24:29;;;;;;;20.37;10.65;;;;;;;6.65;100.00;100109.47;5608625;31;34102;-73
2023/12/26 03:27:35;;;;;;;28.85;11.12;;;;;;;6.51;100.00;100116.09;5609115;31;33862;-71
2023/12/26 03:30:39;;;;;;;25.27;11.70;;;;;;;6.39;100.00;100111.97;5609240;31;34048;-73
2023/12/26 03:33:45;;;;;;;25.10;11.50;;;;;;;6.38;100.00;100118.25;5608408;31;34135;-73
2023/12/26 03:36:50;;;;;;;23.55;11.12;;;;;;;6.28;100.00;100101.66;5609425;31;33478;-72
2023/12/26 03:39:54;;;;;;;21.85;10.32;;;;;;;6.35;100.00;100102.72;5609317;31;33994;-73
2023/12/26 03:42:58;;;;;;;27.70;11.73;;;;;;;6.26;100.00;100110.69;5608143;31;34011;-72
2023/12/26 03:46:02;;;;;;;20.92;10.88;;;;;;;6.30;100.00;100107.59;5608600;31;34158;-72
2023/12/26 03:49:06;;;;;;;25.17;12.20;;;;;;;6.20;100.00;100098.91;5609256;31;34280;-72
2023/12/26 03:52:10;;;;;;;24.98;12.30;;;;;;;6.08;100.00;100086.94;5608827;31;34397;-72
2023/12/26 03:55:14;;;;;;;28.58;13.07;;;;;;;5.99;100.00;100088.66;5609054;31;34777;-72
2023/12/26 03:58:17;;;;;;;28.35;13.18;;;;;;;6.10;100.00;100077.06;5609344;31;32425;-72
2023/12/26 04:01:20;;;;;;;27.33;13.65;;;;;;;6.14;100.00;100085.53;5608079;31;34067;-72
2023/12/26 04:04:24;;;;;;;28.10;13.52;;;;;;;6.08;100.00;100074.59;5608806;31;34762;-72
2023/12/26 04:07:28;;;;;;;30.20;13.55;;;;;;;5.99;100.00;100074.66;5609188;31;34622;-71
2023/12/26 04:10:31;;;;;;;24.80;13.25;;;;;;;5.90;100.00;100076.34;5608109;31;34110;-72
2023/12/26 04:13:34;;;;;;;29.05;13.80;;;;;;;5.87;100.00;100074.00;5609060;31;33758;-72
2023/12/26 04:16:37;;;;;;;27.13;13.02;;;;;;;5.89;100.00;100060.69;5608926;31;34031;-72
2023/12/26 04:19:45;;;;;;;32.03;14.13;;;;;;;5.84;100.00;100060.25;5608542;31;34042;-72
2023/12/26 04:22:49;;;;;;;27.67;13.48;;;;;;;5.56;100.00;100068.13;5608504;31;34354;-72
2023/12/26 04:25:53;;;;;;;30.23;13.73;;;;;;;5.53;100.00;100075.47;5608723;31;34171;-72
2023/12/26 04:28:56;;;;;;;31.00;13.98;;;;;;;5.38;100.00;100079.50;5608492;31;34917;-72
2023/12/26 04:31:59;;;;;;;24.40;13.23;;;;;;;5.52;100.00;100082.53;5608527;31;34265;-72
2023/12/26 04:35:03;;;;;;;27.75;13.95;;;;;;;5.45;100.00;100072.72;5607796;31;33991;-72
2023/12/26 04:38:05;;;;;;;26.33;13.43;;;;;;;5.39;100.00;100083.81;5608621;31;34752;-72
2023/12/26 04:41:12;;;;;;;35.38;13.70;;;;;;;5.28;100.00;100082.16;5609002;31;32534;-72
2023/12/26 04:44:15;;;;;;;28.60;13.65;;;;;;;5.18;100.00;100084.81;5608564;31;33981;-72
2023/12/26 04:47:19;;;;;;;31.67;13.93;;;;;;;5.08;100.00;100089.25;5608671;31;34179;-72
2023/12/26 04:50:22;;;;;;;32.50;13.70;;;;;;;5.10;100.00;100099.62;5608238;31;34092;-72
2023/12/26 04:53:26;;;;;;;26.45;13.20;;;;;;;5.32;100.00;100098.50;5608167;31;35015;-72
2023/12/26 04:56:31;;;;;;;27.23;13.20;;;;;;;5.36;100.00;100090.19;5607717;31;34164;-72
2023/12/26 04:59:37;;;;;;;31.30;13.62;;;;;;;5.54;100.00;100085.84;5608322;31;34653;-72
2023/12/26 05:02:41;;;;;;;29.45;13.20;;;;;;;5.57;100.00;100097.87;5607454;31;34168;-72
2023/12/26 05:05:44;;;;;;;28.38;12.88;;;;;;;5.55;100.00;100103.31;5608263;31;34082;-72
2023/12/26 05:08:47;;;;;;;26.42;12.60;;;;;;;5.50;100.00;100112.59;5608448;31;34755;-72
2023/12/26 05:11:51;;;;;;;27.17;12.85;;;;;;;5.43;100.00;100104.44;5608115;31;34700;-72
2023/12/26 05:14:55;;;;;;;26.75;13.50;;;;;;;5.43;100.00;100099.16;5607971;31;34258;-72
2023/12/26 05:17:58;;;;;;;26.95;12.63;;;;;;;5.34;100.00;100121.06;5607926;31;34720;-72
2023/12/26 05:21:01;;;;;;;31.80;13.57;;;;;;;5.32;100.00;100085.38;5608056;31;34212;-72
2023/12/26 05:24:05;;;;;;;30.20;13.20;;;;;;;5.30;100.00;100089.91;5608069;31;34914;-72
2023/12/26 05:27:11;;;;;;;27.73;12.30;;;;;;;5.32;100.00;100090.63;5608094;31;33991;-72
2023/12/26 05:30:14;;;;;;;24.52;12.57;;;;;;;5.34;100.00;100073.72;5607548;31;34232;-72
2023/12/26 05:33:18;;;;;;;25.73;12.15;;;;;;;5.37;100.00;100078.72;5607244;31;34743;-72
2023/12/26 05:36:22;;;;;;;23.33;12.35;;;;;;;5.31;100.00;100097.69;5607549;31;34126;-72
2023/12/26 05:39:25;;;;;;;29.08;12.30;;;;;;;5.31;100.00;100081.06;5607525;31;34373;-72
2023/12/26 05:42:28;;;;;;;25.90;12.13;;;;;;;5.35;100.00;100085.91;5607405;31;35086;-72
2023/12/26 05:45:32;;;;;;;27.67;11.98;;;;;;;5.39;100.00;100070.66;5607451;31;34116;-72
2023/12/26 05:48:41;;;;;;;27.67;11.60;;;;;;;5.38;100.00;100076.88;5607328;31;34795;-72
2023/12/26 05:51:44;;;;;;;28.73;11.68;;;;;;;5.28;100.00;100079.53;5607231;31;34763;-72
2023/12/26 05:54:47;;;;;;;27.33;12.10;;;;;;;5.32;100.00;100086.19;5607083;31;34258;-72
2023/12/26 05:57:50;;;;;;;30.23;11.90;;;;;;;5.26;100.00;100081.50;5607152;31;34706;-72
2023/12/26 06:00:54;;;;;;;30.17;12.02;;;;;;;5.19;100.00;100094.37;5607132;31;34003;-73
2023/12/26 06:03:58;;;;;;;30.50;12.40;;;;;;;5.06;100.00;100099.09;5607425;31;33378;-72
2023/12/26 06:07:04;;;;;;;28.45;12.25;;;;;;;4.97;100.00;100091.22;5607739;31;33967;-72
2023/12/26 06:10:07;;;;;;;32.67;12.82;;;;;;;4.88;100.00;100095.50;5610205;31;33982;-72
2023/12/26 06:13:11;;;;;;;29.45;12.37;;;;;;;4.74;100.00;100099.34;5609860;31;33994;-72
2023/12/26 06:16:14;;;;;;;25.95;12.40;;;;;;;4.76;100.00;100104.47;5609713;31;33986;-72
2023/12/26 06:19:17;;;;;;;33.85;13.18;;;;;;;4.74;100.00;100099.34;5609554;31;34835;-72
2023/12/26 06:22:20;;;;;;;33.60;13.93;;;;;;;4.73;100.00;100092.47;5609642;31;34060;-72
2023/12/26 06:25:23;;;;;;;32.97;13.62;;;;;;;4.66;100.00;100098.37;5609482;31;33774;-72
2023/12/26 06:28:26;;;;;;;28.12;13.80;;;;;;;4.60;100.00;100093.69;5609585;31;34199;-72
2023/12/26 06:31:29;;;;;;;30.27;14.20;;;;;;;4.61;100.00;100108.47;5609061;31;34130;-72
2023/12/26 06:34:32;;;;;;;33.83;14.57;;;;;;;4.55;100.00;100096.69;5608969;31;34774;-73
2023/12/26 06:37:36;;;;;;;29.87;14.98;;;;;;;4.54;100.00;100105.56;5609622;31;34804;-73
2023/12/26 06:40:40;;;;;;;35.20;15.25;;;;;;;4.56;100.00;100094.91;5609714;31;34096;-72
2023/12/26 06:43:43;;;;;;;28.80;14.27;;;;;;;4.54;100.00;100104.75;5609576;31;34191;-72
2023/12/26 06:46:47;;;;;;;29.20;14.60;;;;;;;4.54;100.00;100104.75;5609517;31;35054;-72
2023/12/26 06:49:53;;;;;;;29.98;14.45;;;;;;;4.47;100.00;100108.84;5609592;31;34100;-73
2023/12/26 06:52:56;;;;;;;36.30;16.25;;;;;;;4.38;100.00;100121.84;5609577;31;34080;-73
2023/12/26 06:55:59;;;;;;;29.87;14.68;;;;;;;4.46;100.00;100101.94;5609304;31;34925;-72
2023/12/26 06:59:03;;;;;;;31.05;14.45;;;;;;;4.50;100.00;100106.81;5609909;31;34208;-73
2023/12/26 07:02:06;;;;;;;31.42;14.15;;;;;;;4.41;100.00;100104.13;5609433;31;34686;-72
2023/12/26 07:05:09;;;;;;;30.33;13.70;;;;;;;4.35;100.00;100118.66;5609406;31;34378;-72
2023/12/26 07:08:12;;;;;;;33.17;15.07;;;;;;;4.25;100.00;100109.94;5608614;31;34886;-73
2023/12/26 07:11:15;;;;;;;30.55;13.75;;;;;;;4.20;100.00;100115.59;5609127;31;33998;-73
2023/12/26 07:14:18;;;;;;;30.30;14.27;;;;;;;4.18;100.00;100116.66;5609280;31;34110;-72
2023/12/26 07:17:21;;;;;;;24.45;14.15;;;;;;;4.14;100.00;100133.66;5609145;31;33972;-72
2023/12/26 07:20:24;;;;;;;39.05;14.40;;;;;;;4.18;100.00;100132.41;5608344;31;34298;-72
2023/12/26 07:23:27;;;;;;;31.52;15.30;;;;;;;4.43;100.00;100128.47;5609126;31;34060;-73
2023/12/26 07:26:30;;;;;;;32.10;13.95;;;;;;;4.53;100.00;100134.59;5608996;31;34995;-72
2023/12/26 07:29:33;;;;;;;32.47;14.98;;;;;;;4.70;100.00;100141.81;5609435;31;34912;-73
2023/12/26 07:32:36;;;;;;;28.02;13.60;;;;;;;4.82;100.00;100154.69;5608344;31;34118;-73
2023/12/26 07:35:39;;;;;;;31.15;12.75;;;;;;;4.77;100.00;100170.03;5609200;31;34078;-72
2023/12/26 07:38:42;;;;;;;25.52;12.55;;;;;;;4.79;100.00;100167.28;5609024;31;34125;-72
2023/12/26 07:41:45;;;;;;;30.30;13.00;;;;;;;4.79;100.00;100154.16;5608999;31;34713;-72
2023/12/26 07:44:49;;;;;;;29.27;13.07;;;;;;;4.80;100.00;100154.00;5608981;31;34014;-73
2023/12/26 07:47:53;;;;;;;26.65;13.23;;;;;;;4.79;100.00;100175.97;5609035;31;34279;-73
2023/12/26 07:50:55;;;;;;;26.73;12.05;;;;;;;4.86;100.00;100167.56;5608863;31;34275;-74
2023/12/26 07:54:00;;;;;;;21.95;11.48;;;;;;;5.01;100.00;100168.81;5608826;31;34742;-73
2023/12/26 07:57:03;;;;;;;29.75;12.25;;;;;;;5.22;100.00;100148.50;5608629;31;34246;-74
2023/12/26 08:00:07;;;;;;;26.42;12.23;;;;;;;5.31;100.00;100145.03;5608822;31;34837;-73
2023/12/26 08:03:15;;;;;;;28.70;12.00;;;;;;;5.47;100.00;100155.78;5608842;31;33968;-73
2023/12/26 08:06:23;;;;;;;26.08;11.65;;;;;;;5.54;100.00;100156.06;5608995;31;34136;-73
2023/12/26 08:09:25;;;;;;;23.25;11.43;;;;;;;5.63;100.00;100156.03;5608465;31;34059;-73
2023/12/26 08:12:28;;;;;;;29.45;11.30;;;;;;;5.72;100.00;100148.25;5608790;31;35044;-73
2023/12/26 08:15:32;;;;;;;24.58;11.23;;;;;;;5.85;100.00;100147.00;5607703;31;34055;-73
2023/12/26 08:18:35;;;;;;;20.92;10.90;;;;;;;5.91;100.00;100148.25;5608418;31;34732;-72
2023/12/26 08:21:38;;;;;;;20.92;10.32;;;;;;;5.99;100.00;100161.53;5608506;31;35058;-73
2023/12/26 08:24:41;;;;;;;20.12;10.30;;;;;;;6.08;100.00;100152.78;5608602;31;34230;-72
2023/12/26 08:27:44;;;;;;;21.42;11.02;;;;;;;6.20;100.00;100154.22;5608454;31;34324;-72
2023/12/26 08:30:47;;;;;;;26.08;11.50;;;;;;;6.27;100.00;100142.16;5607542;31;35006;-72
2023/12/26 08:33:51;;;;;;;24.67;11.10;;;;;;;6.32;100.00;100147.81;5607660;31;34088;-72
2023/12/26 08:36:56;;;;;;;22.42;10.95;;;;;;;6.36;100.00;100148.34;5608532;31;34193;-72
2023/12/26 08:39:58;;;;;;;25.60;10.93;;;;;;;6.38;100.00;100146.41;5608277;31;34830;-74
2023/12/26 08:43:02;;;;;;;23.92;10.90;;;;;;;6.42;100.00;100135.41;5608571;31;34812;-72
2023/12/26 08:46:05;;;;;;;24.55;10.48;;;;;;;6.44;100.00;100133.44;5608685;31;35530;-73
2023/12/26 08:49:09;;;;;;;27.35;11.55;;;;;;;6.42;100.00;100129.31;5608233;31;34902;-73
2023/12/26 08:52:13;;;;;;;21.50;10.60;;;;;;;6.34;100.00;100124.75;5607883;31;34103;-73
2023/12/26 08:55:16;;;;;;;25.60;10.77;;;;;;;6.42;100.00;100132.78;5608159;31;34724;-73
2023/12/26 08:58:19;;;;;;;23.35;10.60;;;;;;;6.44;100.00;100132.63;5608035;31;35685;-73
2023/12/26 09:01:22;;;;;;;21.25;10.35;;;;;;;6.52;100.00;100130.94;5608128;31;34746;-73
2023/12/26 09:04:26;;;;;;;24.87;10.40;;;;;;;6.58;100.00;100132.16;5608193;31;34249;-74
2023/12/26 09:07:30;;;;;;;21.37;10.18;;;;;;;6.78;100.00;100141.56;5607981;31;34114;-73
2023/12/26 09:10:33;;;;;;;22.95;10.45;;;;;;;6.86;100.00;100151.38;5608079;31;34858;-72
2023/12/26 09:13:36;;;;;;;21.23;9.70;;;;;;;6.87;100.00;100161.75;5608135;31;34061;-74
2023/12/26 09:16:40;;;;;;;21.77;9.80;;;;;;;7.03;100.00;100174.28;5607130;31;34906;-73
2023/12/26 09:19:43;;;;;;;20.48;9.50;;;;;;;7.05;100.00;100171.50;5607925;31;32680;-73
2023/12/26 09:22:46;;;;;;;20.73;9.27;;;;;;;7.05;100.00;100177.62;5607824;31;34157;-73
2023/12/26 09:25:49;;;;;;;22.80;9.77;;;;;;;7.16;100.00;100195.88;5608038;31;34211;-73
2023/12/26 09:28:53;;;;;;;22.05;9.52;;;;;;;7.24;100.00;100189.81;5606749;31;33873;-73
2023/12/26 09:31:56;;;;;;;21.55;9.48;;;;;;;7.37;100.00;100169.97;5593734;31;34027;-73
2023/12/26 09:34:59;;;;;;;21.42;8.77;;;;;;;7.75;100.00;100170.59;5607444;31;34056;-73
2023/12/26 09:38:03;;;;;;;21.42;8.90;;;;;;;7.92;100.00;100167.09;5606664;31;34310;-73
2023/12/26 09:41:05;;;;;;;20.05;9.63;;;;;;;7.98;100.00;100178.84;5607479;31;34198;-73
2023/12/26 09:44:10;;;;;;;20.55;9.43;;;;;;;8.07;100.00;100184.03;5609812;31;34097;-73
2023/12/26 09:47:16;;;;;;;20.58;9.65;;;;;;;8.07;100.00;100197.22;5610241;31;34640;-73
2023/12/26 09:50:20;;;;;;;20.88;9.15;;;;;;;8.10;100.00;100211.94;5609648;31;34057;-72
2023/12/26 09:53:26;;;;;;;22.42;10.25;;;;;;;8.11;100.00;100206.50;5609714;31;34514;-74
2023/12/26 09:56:33;;;;;;;20.80;10.50;;;;;;;8.07;100.00;100204.31;5609012;31;34552;-73
2023/12/26 09:59:37;;;;;;;27.42;10.40;;;;;;;8.05;100.00;100198.34;5609609;31;34372;-73
2023/12/26 10:02:44;;;;;;;22.65;11.15;;;;;;;8.03;100.00;100195.88;5610190;31;34184;-72
2023/12/26 10:05:49;;;;;;;27.37;11.27;;;;;;;8.00;100.00;100204.09;5609508;31;33992;-73
2023/12/26 10:08:52;;;;;;;24.23;10.77;;;;;;;7.96;100.00;100201.94;5609701;31;34736;-74
2023/12/26 10:11:56;;;;;;;20.83;10.10;;;;;;;8.00;100.00;100206.75;5609372;31;34763;-72
2023/12/26 10:15:01;;;;;;;24.35;11.32;;;;;;;7.95;100.00;100209.03;5609399;31;34782;-73
2023/12/26 10:18:05;;;;;;;26.55;11.05;;;;;;;7.90;100.00;100219.22;5609435;31;34730;-73
2023/12/26 10:21:08;;;;;;;26.77;11.80;;;;;;;7.81;100.00;100204.31;5609281;31;34578;-73
2023/12/26 10:24:12;;;;;;;25.98;12.07;;;;;;;7.86;100.00;100194.94;5609928;31;32895;-73
2023/12/26 10:27:15;;;;;;;25.70;11.52;;;;;;;7.93;100.00;100189.06;5609721;31;34068;-73
2023/12/26 10:30:19;;;;;;;25.40;12.15;;;;;;;7.86;100.00;100178.25;5609059;31;35724;-73
2023/12/26 10:33:28;;;;;;;24.25;11.68;;;;;;;7.76;100.00;100151.97;5609198;31;35064;-73
2023/12/26 10:36:40;;;;;;;24.45;12.52;;;;;;;7.72;100.00;100165.63;5609241;31;34050;-72
2023/12/26 10:39:43;;;;;;;26.27;12.93;;;;;;;7.83;100.00;100157.47;5608834;31;34072;-72
2023/12/26 10:42:50;;;;;;;31.62;13.77;;;;;;;7.69;100.00;100156.22;5609496;31;34194;-72
2023/12/26 10:45:55;;;;;;;27.87;13.62;;;;;;;7.78;100.00;100171.12;5608604;31;34098;-73
2023/12/26 10:49:05;;;;;;;28.45;12.93;;;;;;;7.68;100.00;100159.00;5609220;31;34005;-72
2023/12/26 10:52:11;;;;;;;24.75;13.45;;;;;;;7.81;100.00;100170.81;5609174;31;33957;-72
2023/12/26 10:55:18;;;;;;;29.40;13.40;;;;;;;8.04;100.00;100163.19;5609181;31;34284;-72
2023/12/26 10:58:24;;;;;;;29.85;13.45;;;;;;;8.35;100.00;100165.34;5595724;31;33946;-72
2023/12/26 13:53:46;;;;;;;15.40;6.78;;;;;;;10.22;100.00;100185.72;5587301;31;34241;-72
2023/12/26 13:56:49;;;;;;;14.55;5.65;;;;;;;10.31;100.00;100205.94;5587292;31;34027;-73
2023/12/26 14:00:30;;;;;;;12.57;5.12;;;;;;;10.28;100.00;100206.25;5587499;31;33658;-72
2023/12/26 14:03:37;;;;;;;11.30;4.70;;;;;;;10.59;100.00;100203.66;5587815;31;34125;-72
2023/12/26 14:07:20;;;;;;;8.82;3.70;;;;;;;10.50;100.00;100207.34;5573452;31;34094;-72
2023/12/26 14:10:23;;;;;;;9.07;3.10;;;;;;;10.56;100.00;100227.88;5587111;31;34709;-72
2023/12/26 14:14:05;;;;;;;6.35;2.55;;;;;;;10.56;100.00;100227.88;5587103;31;34110;-74
2023/12/26 14:17:08;;;;;;;5.07;2.17;;;;;;;10.52;100.00;100247.78;5606657;31;33620;-72
2023/12/26 14:20:12;;;;;;;7.00;2.00;;;;;;;10.38;100.00;100258.09;5606475;31;34012;-73
2023/12/26 14:23:53;;;;;;;4.00;1.73;;;;;;;10.37;100.00;100245.81;5606801;31;34073;-72
2023/12/26 14:26:57;;;;;;;5.07;1.90;;;;;;;10.42;100.00;100247.97;5606784;31;34529;-74
2023/12/26 14:30:39;;;;;;;4.62;1.62;;;;;;;10.23;100.00;100248.34;5609518;31;34025;-73
2023/12/26 14:33:42;;;;;;;4.68;1.80;;;;;;;10.06;100.00;100263.44;5609392;31;35094;-72
2023/12/26 14:37:22;;;;;;;5.60;1.60;;;;;;;9.97;100.00;100267.09;5609278;31;33970;-72
2023/12/26 14:40:26;;;;;;;5.25;1.48;;;;;;;10.33;100.00;100273.69;5608860;31;34741;-72
2023/12/26 14:44:08;;;;;;;4.85;1.52;;;;;;;10.31;100.00;100280.16;5608545;31;34050;-72
2023/12/26 14:47:53;;;;;;;6.75;1.17;;;;;;;10.09;100.00;100283.47;5609287;31;34715;-73
2023/12/26 14:51:00;;;;;;;2.17;1.27;;;;;;;9.95;100.00;100282.31;5609578;31;34150;-73
2023/12/26 14:54:40;;;;;;;2.70;1.20;;;;;;;9.95;100.00;100280.50;5609140;31;34219;-72
2023/12/26 14:57:44;;;;;;;2.30;1.20;;;;;;;9.97;100.00;100290.94;5609077;31;34041;-72
2023/12/26 15:01:26;;;;;;;3.58;1.35;;;;;;;9.84;100.00;100294.06;5608120;31;34314;-72
2023/12/26 15:04:29;;;;;;;2.08;1.17;;;;;;;9.93;100.00;100305.47;5608976;31;34040;-72
2023/12/26 15:07:32;;;;;;;2.10;1.10;;;;;;;9.60;100.00;100296.69;5608401;31;34243;-72
2023/12/26 15:10:36;;;;;;;4.60;1.50;;;;;;;9.52;100.00;100302.81;5595384;31;34070;-72
2023/12/26 15:13:39;;;;;;;5.05;1.30;;;;;;;9.63;100.00;100300.84;5608893;31;34038;-71
2023/12/26 15:16:51;;;;;;;2.30;1.27;;;;;;;9.57;100.00;100286.44;5609030;31;34229;-73
2023/12/26 15:19:54;;;;;;;2.35;1.30;;;;;;;9.44;100.00;100286.09;5608860;31;34673;-72
2023/12/26 15:22:58;;;;;;;2.20;1.30;;;;;;;9.51;100.00;100308.25;5608732;31;35125;-72
2023/12/26 15:26:01;;;;;;;4.32;1.30;;;;;;;9.53;100.00;100309.78;5608708;31;33972;-72
2023/12/26 15:29:05;;;;;;;2.95;1.30;;;;;;;9.52;100.00;100328.47;5609129;31;34048;-72
2023/12/26 15:32:10;;;;;;;4.07;1.12;;;;;;;9.28;100.00;100320.47;5607799;31;34153;-72
2023/12/26 15:35:13;;;;;;;3.28;1.30;;;;;;;9.38;100.00;100327.28;5608599;31;34120;-72
2023/12/26 15:38:16;;;;;;;4.22;1.30;;;;;;;9.56;100.00;100330.62;5608579;31;34042;-73
2023/12/26 15:41:21;;;;;;;2.45;1.20;;;;;;;9.67;100.00;100329.50;5608443;31;34800;-73
2023/12/26 15:44:41;;;;;;;;;;;;;;;9.44;100.00;100337.19;5608576;31;33990;-73
2023/12/26 15:47:44;;;;;;;3.62;1.50;;;;;;;9.36;100.00;100345.13;5608180;31;33745;-72
2023/12/26 15:50:48;;;;;;;3.90;1.37;;;;;;;9.52;100.00;100341.72;5609112;31;34796;-72
2023/12/26 15:53:59;;;;;;;3.42;1.50;;;;;;;9.55;100.00;100344.84;5608966;31;34032;-71
2023/12/26 15:57:02;;;;;;;3.25;1.33;;;;;;;9.44;100.00;100353.09;5608742;31;34043;-72
2023/12/26 16:00:10;;;;;;;5.22;1.65;;;;;;;9.37;100.00;100340.66;5609108;31;33917;-73
2023/12/26 16:03:14;;;;;;;2.90;1.40;;;;;;;9.31;100.00;100346.59;5607960;31;34298;-71
2023/12/26 16:06:21;;;;;;;4.10;1.50;;;;;;;9.52;100.00;100353.13;5608984;31;34605;-72
2023/12/26 16:09:28;;;;;;;5.22;1.60;;;;;;;9.48;100.00;100358.91;5608761;31;34007;-71
2023/12/26 16:12:33;;;;;;;4.80;1.65;;;;;;;9.60;100.00;100358.44;5608689;31;34725;-73
2023/12/26 16:15:36;;;;;;;5.18;1.80;;;;;;;9.62;100.00;100371.53;5608380;31;33995;-72
2023/12/26 16:18:41;;;;;;;3.85;1.33;;;;;;;9.55;100.00;100362.56;5608399;31;34537;-72
2023/12/26 16:21:44;;;;;;;4.55;1.80;;;;;;;9.56;100.00;100373.00;5608586;31;34792;-72
2023/12/26 16:24:48;;;;;;;3.58;1.60;;;;;;;9.51;100.00;100364.72;5608390;31;34067;-72
2023/12/26 16:27:51;;;;;;;4.93;1.85;;;;;;;9.52;100.00;100378.78;5608457;31;35335;-72
2023/12/26 16:30:54;;;;;;;6.07;1.80;;;;;;;9.57;100.00;100377.31;5607923;31;33995;-72
2023/12/26 16:33:58;;;;;;;3.15;1.77;;;;;;;9.61;100.00;100380.47;5607368;31;34346;-72
2023/12/26 16:37:05;;;;;;;4.78;2.12;;;;;;;9.64;100.00;100387.25;5608436;31;34147;-72
2023/12/26 16:40:22;;;;;;;5.28;1.85;;;;;;;9.53;100.00;100380.44;5608812;31;32463;-72
2023/12/26 16:43:29;;;;;;;5.28;2.03;;;;;;;9.52;100.00;100382.25;5607975;31;34069;-71
2023/12/26 16:46:32;;;;;;;5.90;2.15;;;;;;;9.41;100.00;100368.47;5608374;31;32561;-72
2023/12/26 16:49:47;;;;;;;4.10;2.08;;;;;;;9.34;100.00;100367.47;5607392;31;34187;-72
2023/12/26 16:52:51;;;;;;;5.18;2.12;;;;;;;9.23;100.00;100373.88;5607244;31;34828;-72
2023/12/26 16:55:54;;;;;;;6.05;2.30;;;;;;;9.32;100.00;100372.91;5594314;31;34125;-72
2023/12/26 16:58:57;;;;;;;6.55;2.33;;;;;;;9.14;100.00;100366.91;5607199;31;34331;-71
2023/12/26 17:02:02;;;;;;;3.85;2.12;;;;;;;9.01;100.00;100363.84;5607909;31;33980;-72